Time;durP1;ratioP1;P1;durP2;ratioP2;P2;SDS_P1;SDS_P2;PMS_P1;PMS_P2;Temp;Humidity;BMP_temperature;BMP_pressure;BME280_temperature;BME280_humidity;BME280_pressure;Samples;Min_cycle;Max_cycle;Signal;HPM_P1;HPM_P2
2022/06/03 00:02:17;;;;;;;3.10;2.90;;;;;;;;;;5045908;28;20800;-61
2022/06/03 00:05:05;;;;;;;3.27;3.07;;;;;;;;;;5052585;28;20935;-61
2022/06/03 00:07:37;;;;;;;3.50;3.30;;;;;;;;;;5052624;28;20539;-61
2022/06/03 00:10:12;;;;;;;3.30;3.10;;;;;;;;;;5052522;28;20565;-61
2022/06/03 00:12:50;;;;;;;3.43;3.10;;;;;;;;;;5052461;28;20444;-61
2022/06/03 00:15:25;;;;;;;3.73;3.43;;;;;;;;;;5052671;28;20448;-61
2022/06/03 00:18:05;;;;;;;3.57;3.37;;;;;;;;;;5054660;28;20509;-61
2022/06/03 00:20:38;;;;;;;3.80;3.60;;;;;;;;;;5056149;28;20483;-61
2022/06/03 00:23:27;;;;;;;3.73;3.43;;;;;;;;;;5056727;28;20535;-62
2022/06/03 00:26:09;;;;;;;3.20;3.00;;;;;;;;;;5056657;28;20485;-61
2022/06/03 00:28:47;;;;;;;3.87;3.57;;;;;;;;;;5056370;28;20535;-61
2022/06/03 00:31:23;;;;;;;3.20;3.10;;;;;;;;;;5056389;28;20558;-61
2022/06/03 00:34:01;;;;;;;3.50;3.30;;;;;;;;;;5056313;28;20527;-61
2022/06/03 00:36:39;;;;;;;3.23;2.93;;;;;;;;;;5056075;28;20526;-61
2022/06/03 00:39:16;;;;;;;3.13;3.03;;;;;;;;;;5056079;28;20482;-61
2022/06/03 00:41:49;;;;;;;2.90;2.80;;;;;;;;;;5056137;28;20515;-61
2022/06/03 00:44:26;;;;;;;3.43;3.23;;;;;;;;;;5055915;28;20467;-61
2022/06/03 00:47:00;;;;;;;3.37;3.17;;;;;;;;;;5055867;28;20454;-61
2022/06/03 00:49:34;;;;;;;3.03;2.93;;;;;;;;;;5056081;28;20427;-61
2022/06/03 00:52:09;;;;;;;3.43;3.23;;;;;;;;;;5055702;28;20984;-61
2022/06/03 00:54:50;;;;;;;3.50;3.23;;;;;;;;;;5055819;28;20543;-61
2022/06/03 00:57:29;;;;;;;3.67;3.47;;;;;;;;;;5055713;28;20456;-61
2022/06/03 01:00:07;;;;;;;3.40;3.20;;;;;;;;;;5055497;28;20555;-61
2022/06/03 01:02:51;;;;;;;3.70;3.50;;;;;;;;;;5055949;28;20454;-61
2022/06/03 01:05:26;;;;;;;4.03;3.70;;;;;;;;;;5055540;28;20426;-61
2022/06/03 01:08:05;;;;;;;3.90;3.67;;;;;;;;;;5055522;28;20533;-60
2022/06/03 01:10:38;;;;;;;3.60;3.40;;;;;;;;;;5055269;28;20448;-61
2022/06/03 01:13:12;;;;;;;5.20;3.80;;;;;;;;;;5055738;28;20534;-61
2022/06/03 01:15:42;;;;;;;3.80;3.30;;;;;;;;;;5055225;28;20981;-61
2022/06/03 01:18:17;;;;;;;5.30;3.10;;;;;;;;;;5055286;28;20555;-61
2022/06/03 01:20:47;;;;;;;4.10;3.80;;;;;;;;;;5055088;28;20838;-61
2022/06/03 01:23:37;;;;;;;3.47;3.27;;;;;;;;;;5055058;28;20459;-61
2022/06/03 01:26:12;;;;;;;3.70;3.50;;;;;;;;;;5055246;28;20427;-61
2022/06/03 01:28:48;;;;;;;4.20;3.80;;;;;;;;;;5054842;28;20939;-61
2022/06/03 01:31:30;;;;;;;3.60;3.40;;;;;;;;;;5055424;28;20934;-61
2022/06/03 01:34:03;;;;;;;3.67;3.47;;;;;;;;;;5055094;28;20448;-61
2022/06/03 01:36:39;;;;;;;4.50;4.10;;;;;;;;;;5054973;28;20455;-61
2022/06/03 01:39:15;;;;;;;4.80;4.40;;;;;;;;;;5054909;28;20778;-61
2022/06/03 01:41:50;;;;;;;3.80;3.60;;;;;;;;;;5054619;28;20480;-61
2022/06/03 01:44:29;;;;;;;4.60;4.30;;;;;;;;;;5054596;28;20482;-61
2022/06/03 01:47:23;;;;;;;6.27;4.80;;;;;;;;;;5054813;28;20429;-61
2022/06/03 01:50:01;;;;;;;4.17;3.93;;;;;;;;;;5030537;28;20541;-61
2022/06/03 01:52:46;;;;;;;4.10;3.90;;;;;;;;;;5054550;28;20484;-61
2022/06/03 01:55:31;;;;;;;4.37;4.07;;;;;;;;;;5054630;28;20426;-61
2022/06/03 01:58:09;;;;;;;4.40;4.10;;;;;;;;;;5054512;28;20444;-61
2022/06/03 02:00:37;;;;;;;3.90;3.70;;;;;;;;;;5054283;28;20546;-61
2022/06/03 02:03:11;;;;;;;4.43;4.13;;;;;;;;;;5054753;28;20551;-61
2022/06/03 02:06:01;;;;;;;4.07;3.77;;;;;;;;;;5054468;28;20887;-61
2022/06/03 02:08:40;;;;;;;4.93;4.63;;;;;;;;;;5054316;28;20423;-61
2022/06/03 02:11:17;;;;;;;4.80;4.40;;;;;;;;;;5054200;28;20448;-61
2022/06/03 02:13:53;;;;;;;3.87;3.67;;;;;;;;;;5054158;28;20937;-61
2022/06/03 02:16:48;;;;;;;4.10;3.70;;;;;;;;;;5054227;28;20458;-61
2022/06/03 02:19:24;;;;;;;3.97;3.60;;;;;;;;;;5054010;28;20455;-61
2022/06/03 02:21:58;;;;;;;4.87;4.53;;;;;;;;;;5054121;28;20571;-61
2022/06/03 02:24:36;;;;;;;5.40;4.77;;;;;;;;;;5054076;28;20544;-61
2022/06/03 02:27:21;;;;;;;5.00;4.50;;;;;;;;;;5053951;28;20471;-61
2022/06/03 02:33:07;;;;;;;3.90;3.70;;;;;;;;;;5054053;28;20447;-61
2022/06/03 02:35:42;;;;;;;4.90;4.50;;;;;;;;;;5054157;28;20427;-61
2022/06/03 02:38:27;;;;;;;4.33;3.93;;;;;;;;;;5054178;28;20456;-61
2022/06/03 02:41:08;;;;;;;4.63;4.33;;;;;;;;;;5053190;28;20468;-61
2022/06/03 02:43:49;;;;;;;4.77;4.47;;;;;;;;;;5053482;28;20558;-61
2022/06/03 02:46:35;;;;;;;4.43;4.13;;;;;;;;;;5053558;28;20539;-61
2022/06/03 02:49:25;;;;;;;4.23;3.87;;;;;;;;;;5053660;28;20891;-61
2022/06/03 02:52:07;;;;;;;4.83;4.47;;;;;;;;;;5053512;28;20459;-61
2022/06/03 02:54:50;;;;;;;4.20;3.90;;;;;;;;;;5051999;28;20889;-61
2022/06/03 02:57:27;;;;;;;4.23;3.93;;;;;;;;;;5053558;28;20456;-61
2022/06/03 03:00:04;;;;;;;4.03;3.83;;;;;;;;;;5053473;28;20429;-61
2022/06/03 03:02:39;;;;;;;4.60;4.20;;;;;;;;;;5053235;28;20488;-61
2022/06/03 03:05:27;;;;;;;4.60;4.20;;;;;;;;;;5053197;28;20838;-61
2022/06/03 03:08:17;;;;;;;5.03;4.63;;;;;;;;;;5049802;28;20430;-61
2022/06/03 03:10:51;;;;;;;5.40;4.63;;;;;;;;;;5053188;28;20764;-61
2022/06/03 03:13:33;;;;;;;4.77;4.50;;;;;;;;;;5053025;28;20505;-62
2022/06/03 03:16:14;;;;;;;4.80;4.50;;;;;;;;;;5051699;28;20484;-61
2022/06/03 03:18:54;;;;;;;4.80;4.40;;;;;;;;;;5044489;28;20452;-60
2022/06/03 03:21:31;;;;;;;4.00;3.80;;;;;;;;;;5053051;28;20961;-61
2022/06/03 03:24:20;;;;;;;4.37;4.00;;;;;;;;;;5052911;28;20475;-61
2022/06/03 03:26:55;;;;;;;4.50;4.20;;;;;;;;;;5053306;28;20423;-61
2022/06/03 03:29:28;;;;;;;4.73;4.27;;;;;;;;;;5053033;28;20426;-61
2022/06/03 03:32:10;;;;;;;4.40;4.10;;;;;;;;;;5052805;28;20926;-61
2022/06/03 03:35:00;;;;;;;6.20;4.50;;;;;;;;;;5053087;28;20932;-61
2022/06/03 03:37:47;;;;;;;6.13;4.60;;;;;;;;;;5052945;28;20427;-61
2022/06/03 03:40:32;;;;;;;5.73;4.33;;;;;;;;;;5052847;28;20646;-61
2022/06/03 03:43:23;;;;;;;7.50;4.67;;;;;;;;;;5052819;28;20544;-61
2022/06/03 03:46:09;;;;;;;5.30;4.80;;;;;;;;;;5042537;28;20460;-61
2022/06/03 03:48:54;;;;;;;5.13;4.73;;;;;;;;;;5052818;28;20617;-61
2022/06/03 03:51:33;;;;;;;5.27;4.83;;;;;;;;;;5052987;28;20456;-61
2022/06/03 03:54:19;;;;;;;5.73;5.17;;;;;;;;;;5057001;28;20823;-61
2022/06/03 03:57:02;;;;;;;6.63;4.87;;;;;;;;;;5056997;28;20452;-61
2022/06/03 03:59:50;;;;;;;4.93;4.63;;;;;;;;;;5056615;28;20444;-61
2022/06/03 04:02:48;;;;;;;8.10;5.10;;;;;;;;;;5056685;28;20846;-61
2022/06/03 04:05:27;;;;;;;4.80;4.50;;;;;;;;;;5056723;28;20458;-60
2022/06/03 04:08:04;;;;;;;5.83;5.47;;;;;;;;;;5056566;28;20452;-61
2022/06/03 04:10:39;;;;;;;4.97;4.53;;;;;;;;;;5056694;28;20887;-61
2022/06/03 04:13:30;;;;;;;5.10;4.70;;;;;;;;;;5056807;28;20539;-61
2022/06/03 04:16:02;;;;;;;5.20;4.80;;;;;;;;;;5056349;28;20879;-61
2022/06/03 04:18:55;;;;;;;6.40;5.80;;;;;;;;;;5056774;28;20514;-61
2022/06/03 04:21:31;;;;;;;7.40;6.70;;;;;;;;;;5056203;28;20530;-61
2022/06/03 04:24:16;;;;;;;6.77;6.17;;;;;;;;;;5056308;28;20823;-60
2022/06/03 04:26:55;;;;;;;6.20;5.70;;;;;;;;;;5049312;28;20452;-61
2022/06/03 04:29:35;;;;;;;6.60;6.10;;;;;;;;;;5056169;28;20433;-61
2022/06/03 04:32:20;;;;;;;5.57;5.17;;;;;;;;;;5056164;28;20476;-61
2022/06/03 04:35:02;;;;;;;6.10;5.60;;;;;;;;;;5055849;28;20527;-61
2022/06/03 04:37:55;;;;;;;7.77;6.37;;;;;;;;;;5056323;28;20455;-61
2022/06/03 04:40:40;;;;;;;6.70;6.20;;;;;;;;;;5055967;28;20451;-61
2022/06/03 04:43:35;;;;;;;6.87;6.37;;;;;;;;;;5055689;28;20512;-61
2022/06/03 04:46:20;;;;;;;6.53;5.97;;;;;;;;;;5031648;28;20454;-61
2022/06/03 04:49:05;;;;;;;7.20;5.60;;;;;;;;;;5055843;28;20502;-61
2022/06/03 04:51:49;;;;;;;5.13;4.83;;;;;;;;;;5056133;28;20444;-61
2022/06/03 04:54:43;;;;;;;16.80;7.00;;;;;;;;;;5055744;28;20456;-61
2022/06/03 04:57:31;;;;;;;6.53;6.03;;;;;;;;;;5055520;28;20452;-61
2022/06/03 05:00:05;;;;;;;5.40;5.00;;;;;;;;;;5055488;28;20808;-61
2022/06/03 05:02:59;;;;;;;7.80;7.00;;;;;;;;;;5054936;28;20483;-61
2022/06/03 05:05:56;;;;;;;6.90;6.30;;;;;;;;;;5055349;28;20536;-61
2022/06/03 05:08:43;;;;;;;5.60;5.10;;;;;;;;;;5055432;28;21018;-61
2022/06/03 05:11:36;;;;;;;8.00;5.70;;;;;;;;;;5055402;28;20506;-61
2022/06/03 05:14:27;;;;;;;4.60;4.40;;;;;;;;;;5055206;28;20962;-61
2022/06/03 05:17:12;;;;;;;8.80;5.63;;;;;;;;;;5044854;28;20888;-61
2022/06/03 05:19:47;;;;;;;4.63;4.20;;;;;;;;;;5055212;28;20535;-61
2022/06/03 05:22:23;;;;;;;5.37;4.87;;;;;;;;;;5054980;28;20494;-61
2022/06/03 05:25:07;;;;;;;4.97;4.57;;;;;;;;;;5054874;28;20450;-61
2022/06/03 05:27:52;;;;;;;7.67;5.70;;;;;;;;;;5054946;28;20936;-61
2022/06/03 05:30:37;;;;;;;3.80;3.60;;;;;;;;;;5055207;28;20539;-61
2022/06/03 05:33:24;;;;;;;3.70;3.40;;;;;;;;;;5054741;28;20535;-61
2022/06/03 05:36:15;;;;;;;4.77;4.13;;;;;;;;;;5054564;28;20458;-61
2022/06/03 05:38:54;;;;;;;7.23;4.13;;;;;;;;;;5054689;28;20531;-61
2022/06/03 05:44:21;;;;;;;3.33;3.03;;;;;;;;;;5054822;28;20621;-61
2022/06/03 05:46:53;;;;;;;4.10;2.70;;;;;;;;;;5054595;28;20443;-61
2022/06/03 05:49:25;;;;;;;2.77;2.50;;;;;;;;;;5054525;28;20483;-61
2022/06/03 05:52:09;;;;;;;2.90;2.50;;;;;;;;;;5054364;28;20555;-61
2022/06/03 05:54:41;;;;;;;4.90;3.20;;;;;;;;;;5054457;28;20527;-61
2022/06/03 05:57:14;;;;;;;2.70;2.50;;;;;;;;;;5054415;28;20455;-61
2022/06/03 05:59:48;;;;;;;5.03;4.53;;;;;;;;;;5054248;28;20454;-61
2022/06/03 06:02:20;;;;;;;4.10;3.80;;;;;;;;;;5054550;28;20918;-61
2022/06/03 06:05:00;;;;;;;3.67;3.47;;;;;;;;;;5054463;28;20452;-61
2022/06/03 06:07:30;;;;;;;3.93;3.50;;;;;;;;;;5054389;28;20876;-61
2022/06/03 06:10:02;;;;;;;3.33;3.13;;;;;;;;;;5054264;28;20534;-61
2022/06/03 06:12:38;;;;;;;3.30;3.10;;;;;;;;;;5054124;28;20471;-61
2022/06/03 06:15:23;;;;;;;3.27;3.07;;;;;;;;;;5053481;28;20789;-61
2022/06/03 06:17:55;;;;;;;3.57;3.27;;;;;;;;;;5054200;28;20482;-61
2022/06/03 06:20:28;;;;;;;3.13;2.93;;;;;;;;;;5054037;28;20801;-61
2022/06/03 06:22:58;;;;;;;5.13;3.40;;;;;;;;;;5053682;28;21062;-61
2022/06/03 06:25:37;;;;;;;3.73;3.13;;;;;;;;;;5054092;28;20539;-61
2022/06/03 06:28:05;;;;;;;3.23;3.03;;;;;;;;;;5053802;28;20451;-61
2022/06/03 06:30:42;;;;;;;3.07;2.77;;;;;;;;;;5053941;28;20451;-61
2022/06/03 06:33:19;;;;;;;2.63;2.43;;;;;;;;;;5053769;28;20989;-61
2022/06/03 06:36:01;;;;;;;3.00;2.80;;;;;;;;;;5053590;28;20452;-61
2022/06/03 06:38:31;;;;;;;2.47;2.30;;;;;;;;;;5053695;28;20538;-61
2022/06/03 06:41:07;;;;;;;2.70;2.50;;;;;;;;;;5053563;28;20456;-61
2022/06/03 06:43:39;;;;;;;2.37;2.23;;;;;;;;;;5053361;28;20494;-61
2022/06/03 06:46:09;;;;;;;2.13;1.80;;;;;;;;;;5053302;28;20452;-61
2022/06/03 06:48:42;;;;;;;2.83;2.20;;;;;;;;;;5053191;28;20533;-61
2022/06/03 06:51:18;;;;;;;2.37;2.17;;;;;;;;;;5053371;28;20467;-61
2022/06/03 06:53:49;;;;;;;2.60;2.03;;;;;;;;;;5053326;28;20451;-61
2022/06/03 06:56:23;;;;;;;1.67;1.57;;;;;;;;;;5053136;28;20462;-61
2022/06/03 06:58:52;;;;;;;3.30;1.73;;;;;;;;;;5053365;28;20452;-61
2022/06/03 07:01:20;;;;;;;2.40;1.63;;;;;;;;;;5053498;28;20448;-61
2022/06/03 07:03:52;;;;;;;1.93;1.63;;;;;;;;;;5053078;28;20495;-61
2022/06/03 07:06:22;;;;;;;4.50;1.97;;;;;;;;;;5053142;28;20459;-61
2022/06/03 07:08:51;;;;;;;2.03;1.63;;;;;;;;;;5052944;28;20546;-61
2022/06/03 07:11:23;;;;;;;2.50;2.10;;;;;;;;;;5053045;28;20538;-61
2022/06/03 07:13:53;;;;;;;2.40;1.80;;;;;;;;;;5052290;28;20542;-61
2022/06/03 07:22:02;;;;;;;1.63;1.53;;;;;;;;;;5052832;28;20538;-61
2022/06/03 07:24:39;;;;;;;3.20;1.70;;;;;;;;;;5052845;28;20448;-61
2022/06/03 07:27:12;;;;;;;2.80;1.73;;;;;;;;;;5052610;28;20966;-61
2022/06/03 07:29:42;;;;;;;1.70;1.60;;;;;;;;;;5052761;28;20452;-61
2022/06/03 07:32:12;;;;;;;4.97;1.90;;;;;;;;;;5053218;28;20452;-61
2022/06/03 07:34:41;;;;;;;1.70;1.60;;;;;;;;;;5052871;28;20487;-62
2022/06/03 07:37:11;;;;;;;1.70;1.60;;;;;;;;;;5052722;28;20455;-62
2022/06/03 07:39:48;;;;;;;1.83;1.73;;;;;;;;;;5052892;28;20448;-61
2022/06/03 07:42:21;;;;;;;2.20;1.87;;;;;;;;;;5052580;28;20479;-61
2022/06/03 07:44:55;;;;;;;1.87;1.77;;;;;;;;;;5052615;28;20478;-62
2022/06/03 07:47:24;;;;;;;3.20;2.50;;;;;;;;;;5052789;28;20468;-62
2022/06/03 07:49:54;;;;;;;1.57;1.47;;;;;;;;;;5052664;28;20453;-61
2022/06/03 07:52:26;;;;;;;2.00;1.87;;;;;;;;;;5052625;28;20484;-64
2022/06/03 07:54:56;;;;;;;2.10;1.90;;;;;;;;;;5052464;28;20484;-64
2022/06/03 07:57:27;;;;;;;3.00;1.80;;;;;;;;;;5052485;28;20455;-64
2022/06/03 07:59:57;;;;;;;3.97;1.77;;;;;;;;;;5052052;28;20543;-64
2022/06/03 08:02:24;;;;;;;2.07;1.97;;;;;;;;;;5051939;28;20557;-64
2022/06/03 08:05:01;;;;;;;2.20;2.03;;;;;;;;;;5052068;28;20862;-64
2022/06/03 08:13:02;;;;;;;1.58;1.48;;;;;;;;;;5052021;28;20499;-61
2022/06/03 08:15:31;;;;;;;3.57;2.47;;;;;;;;;;5052269;28;20191;-64
2022/06/03 08:18:05;;;;;;;1.70;1.60;;;;;;;;;;5052317;28;20460;-63
2022/06/03 08:20:34;;;;;;;1.90;1.80;;;;;;;;;;5052246;28;20641;-64
2022/06/03 08:23:02;;;;;;;2.70;2.10;;;;;;;;;;5051986;28;20460;-63
2022/06/03 08:25:30;;;;;;;2.20;1.93;;;;;;;;;;5052098;28;20190;-64
2022/06/03 08:27:58;;;;;;;1.80;1.70;;;;;;;;;;5052167;28;20553;-64
2022/06/03 08:30:27;;;;;;;2.03;1.93;;;;;;;;;;5052412;28;20449;-63
2022/06/03 08:32:57;;;;;;;3.87;2.37;;;;;;;;;;5052345;28;20539;-63
2022/06/03 08:35:25;;;;;;;3.87;1.80;;;;;;;;;;5052187;28;20538;-64
2022/06/03 08:37:54;;;;;;;1.60;1.50;;;;;;;;;;5052777;28;20804;-64
2022/06/03 08:40:26;;;;;;;2.07;1.70;;;;;;;;;;5055860;28;20902;-64
2022/06/03 08:42:58;;;;;;;2.60;2.23;;;;;;;;;;5055385;28;20919;-64
2022/06/03 08:45:33;;;;;;;1.97;1.50;;;;;;;;;;5055937;28;20547;-63
2022/06/03 08:48:03;;;;;;;2.03;1.93;;;;;;;;;;5055612;28;20967;-63
2022/06/03 08:50:34;;;;;;;2.00;1.77;;;;;;;;;;5055634;28;21019;-63
2022/06/03 08:53:03;;;;;;;1.70;1.60;;;;;;;;;;5055385;28;20555;-64
2022/06/03 08:55:42;;;;;;;3.20;1.73;;;;;;;;;;5055690;28;20444;-64
2022/06/03 08:58:13;;;;;;;2.07;1.97;;;;;;;;;;5055660;28;20891;-64
2022/06/03 09:00:49;;;;;;;2.10;1.90;;;;;;;;;;5055490;28;20448;-63
2022/06/03 09:03:17;;;;;;;1.57;1.47;;;;;;;;;;5055266;28;20480;-64
2022/06/03 09:05:46;;;;;;;2.10;2.00;;;;;;;;;;5055194;28;20459;-64
2022/06/03 09:08:16;;;;;;;2.13;1.67;;;;;;;;;;5055527;28;20517;-64
2022/06/03 09:10:44;;;;;;;1.90;1.70;;;;;;;;;;5055232;28;20464;-63
2022/06/03 09:13:17;;;;;;;2.27;1.60;;;;;;;;;;5055241;28;20539;-64
2022/06/03 09:15:46;;;;;;;1.60;1.50;;;;;;;;;;5055221;28;20812;-64
2022/06/03 09:18:16;;;;;;;1.87;1.77;;;;;;;;;;5055076;28;20544;-64
2022/06/03 09:20:45;;;;;;;1.50;1.40;;;;;;;;;;5054743;28;20459;-64
2022/06/03 09:23:15;;;;;;;2.30;1.70;;;;;;;;;;5055003;28;20579;-64
2022/06/03 09:25:44;;;;;;;1.67;1.57;;;;;;;;;;5055143;28;20563;-64
2022/06/03 09:28:16;;;;;;;1.77;1.57;;;;;;;;;;5054885;28;20535;-63
2022/06/03 09:30:43;;;;;;;1.60;1.50;;;;;;;;;;5054924;28;20538;-64
2022/06/03 09:33:13;;;;;;;3.30;1.70;;;;;;;;;;5055055;28;20444;-64
2022/06/03 09:35:42;;;;;;;1.90;1.80;;;;;;;;;;5054146;28;20447;-63
2022/06/03 09:38:10;;;;;;;1.93;1.43;;;;;;;;;;5054730;28;20533;-63
2022/06/03 09:40:41;;;;;;;6.27;1.63;;;;;;;;;;5054805;28;20478;-64
2022/06/03 09:43:11;;;;;;;1.40;1.30;;;;;;;;;;5054342;28;20495;-64
2022/06/03 09:45:38;;;;;;;1.60;1.50;;;;;;;;;;5054628;28;20947;-64
2022/06/03 09:48:05;;;;;;;2.00;1.90;;;;;;;;;;5054614;28;21038;-64
2022/06/03 09:50:34;;;;;;;2.20;1.77;;;;;;;;;;5053347;28;20452;-64
2022/06/03 09:53:06;;;;;;;2.07;1.40;;;;;;;;;;5054410;28;20460;-64
2022/06/03 09:55:36;;;;;;;2.37;1.40;;;;;;;;;;5054300;28;20539;-63
2022/06/03 09:58:03;;;;;;;1.80;1.70;;;;;;;;;;5054369;28;20487;-63
2022/06/03 10:00:36;;;;;;;1.50;1.40;;;;;;;;;;5054448;28;20448;-64
2022/06/03 10:03:03;;;;;;;2.33;1.50;;;;;;;;;;5054218;28;20525;-64
2022/06/03 10:05:30;;;;;;;1.57;1.47;;;;;;;;;;5054241;28;20452;-63
2022/06/03 10:08:00;;;;;;;1.50;1.40;;;;;;;;;;5054059;28;20452;-63
2022/06/03 10:13:12;;;;;;;1.90;1.80;;;;;;;;;;5054337;28;20847;-64
2022/06/03 10:15:41;;;;;;;1.93;1.60;;;;;;;;;;5054012;28;20506;-64
2022/06/03 10:18:14;;;;;;;1.50;1.40;;;;;;;;;;5053903;28;20449;-64
2022/06/03 10:20:42;;;;;;;1.70;1.60;;;;;;;;;;5053601;28;21053;-64
2022/06/03 10:23:10;;;;;;;1.67;1.40;;;;;;;;;;5053605;28;21006;-64
2022/06/03 10:25:37;;;;;;;1.60;1.50;;;;;;;;;;5053854;28;20498;-64
2022/06/03 10:28:05;;;;;;;2.00;1.50;;;;;;;;;;5053275;28;20467;-64
2022/06/03 10:30:33;;;;;;;1.67;1.57;;;;;;;;;;5053702;28;20680;-64
2022/06/03 10:33:00;;;;;;;3.03;1.27;;;;;;;;;;5053539;28;20537;-65
2022/06/03 10:35:29;;;;;;;1.70;1.43;;;;;;;;;;5053797;28;20824;-65
2022/06/03 10:37:57;;;;;;;1.60;1.30;;;;;;;;;;5052638;28;20981;-65
2022/06/03 10:40:27;;;;;;;1.33;1.23;;;;;;;;;;5053821;28;20236;-66
2022/06/03 10:42:55;;;;;;;1.43;1.33;;;;;;;;;;5053535;28;20479;-65
2022/06/03 10:45:27;;;;;;;1.73;1.60;;;;;;;;;;5053706;28;20453;-64
2022/06/03 10:47:53;;;;;;;2.60;1.30;;;;;;;;;;5053304;28;20449;-65
2022/06/03 10:50:27;;;;;;;1.50;1.40;;;;;;;;;;5053573;28;20491;-65
2022/06/03 11:01:32;;;;;;;1.57;1.47;;;;;;;;;;5052831;28;20532;-65
2022/06/03 11:03:59;;;;;;;1.50;1.40;;;;;;;;;;5053105;28;20483;-65
2022/06/03 11:06:28;;;;;;;2.03;1.50;;;;;;;;;;5052892;28;20955;-65
2022/06/03 11:08:58;;;;;;;1.50;1.40;;;;;;;;;;5053272;28;20458;-65
2022/06/03 11:11:47;;;;;;;1.57;1.47;;;;;;;;;;5053079;28;20459;-65
2022/06/03 11:14:26;;;;;;;1.63;1.53;;;;;;;;;;5051247;28;20452;-65
2022/06/03 11:16:58;;;;;;;1.93;1.50;;;;;;;;;;5052864;28;20536;-65
2022/06/03 11:19:25;;;;;;;2.43;1.60;;;;;;;;;;5053119;28;20444;-65
2022/06/03 11:22:10;;;;;;;2.53;1.57;;;;;;;;;;5053032;28;20448;-65
2022/06/03 11:24:37;;;;;;;1.80;1.70;;;;;;;;;;5052898;28;20872;-65
2022/06/03 11:27:07;;;;;;;2.23;1.70;;;;;;;;;;5052775;28;20448;-65
2022/06/03 11:29:37;;;;;;;1.97;1.47;;;;;;;;;;5052881;28;20490;-65
2022/06/03 11:32:06;;;;;;;4.97;2.10;;;;;;;;;;5053057;28;20463;-65
2022/06/03 11:34:36;;;;;;;1.43;1.33;;;;;;;;;;5052847;28;20536;-65
2022/06/03 11:37:04;;;;;;;1.50;1.30;;;;;;;;;;5052778;28;20448;-65
2022/06/03 11:39:35;;;;;;;1.70;1.60;;;;;;;;;;5052773;28;20540;-65
2022/06/03 11:42:05;;;;;;;1.50;1.40;;;;;;;;;;5052964;28;20529;-65
2022/06/03 11:44:36;;;;;;;1.50;1.40;;;;;;;;;;5052387;28;20572;-65
2022/06/03 11:47:08;;;;;;;2.60;1.47;;;;;;;;;;5052442;28;20562;-65
2022/06/03 11:49:35;;;;;;;1.40;1.30;;;;;;;;;;5052885;28;20452;-65
2022/06/03 11:52:02;;;;;;;1.33;1.17;;;;;;;;;;5052598;28;20448;-65
2022/06/03 11:54:31;;;;;;;1.33;1.23;;;;;;;;;;5052920;28;20452;-65
2022/06/03 11:56:58;;;;;;;1.37;1.27;;;;;;;;;;5052666;28;20451;-65
2022/06/03 11:59:27;;;;;;;1.50;1.40;;;;;;;;;;5052746;28;20449;-65
2022/06/03 12:01:57;;;;;;;1.47;1.30;;;;;;;;;;5052579;28;20535;-65
2022/06/03 12:04:33;;;;;;;1.50;1.40;;;;;;;;;;5052412;28;20843;-65
2022/06/03 12:07:06;;;;;;;1.47;1.37;;;;;;;;;;5052545;28;20534;-65
2022/06/03 12:09:40;;;;;;;1.30;1.20;;;;;;;;;;5052508;28;20454;-65
2022/06/03 12:14:58;;;;;;;1.40;1.27;;;;;;;;;;5056347;28;20525;-65
2022/06/03 12:17:32;;;;;;;2.00;1.37;;;;;;;;;;5056538;28;20459;-65
2022/06/03 12:20:12;;;;;;;1.67;1.53;;;;;;;;;;5056401;28;20483;-65
2022/06/03 12:22:41;;;;;;;1.50;1.40;;;;;;;;;;5056140;28;20456;-65
2022/06/03 12:25:27;;;;;;;1.30;1.20;;;;;;;;;;5056010;28;20511;-65
2022/06/03 12:27:55;;;;;;;2.83;1.80;;;;;;;;;;5056184;28;20462;-65
2022/06/03 12:30:43;;;;;;;1.67;1.20;;;;;;;;;;5056158;28;20873;-65
2022/06/03 12:33:12;;;;;;;1.40;1.30;;;;;;;;;;5056133;28;20506;-66
2022/06/03 12:35:54;;;;;;;3.70;1.67;;;;;;;;;;5055777;28;20841;-65
2022/06/03 12:38:29;;;;;;;1.47;1.30;;;;;;;;;;5055646;28;20494;-65
2022/06/03 12:40:57;;;;;;;1.70;1.60;;;;;;;;;;5055775;28;20478;-65
2022/06/03 12:43:24;;;;;;;2.50;1.80;;;;;;;;;;5055482;28;20486;-65
2022/06/03 12:45:59;;;;;;;1.47;1.37;;;;;;;;;;5055718;28;20888;-65
2022/06/03 12:48:36;;;;;;;1.33;1.23;;;;;;;;;;5055697;28;20994;-65
2022/06/03 12:51:20;;;;;;;2.60;1.10;;;;;;;;;;5055772;28;20463;-65
2022/06/03 12:53:48;;;;;;;1.40;1.30;;;;;;;;;;5055629;28;20452;-65
2022/06/03 12:56:29;;;;;;;1.97;1.47;;;;;;;;;;5055534;28;20444;-65
2022/06/03 12:59:00;;;;;;;1.57;1.47;;;;;;;;;;5055416;28;20452;-65
2022/06/03 13:01:43;;;;;;;1.80;1.70;;;;;;;;;;5055666;28;20486;-65
2022/06/03 13:04:27;;;;;;;1.93;1.20;;;;;;;;;;5055527;28;20555;-65
2022/06/03 13:07:30;;;;;;;1.83;1.13;;;;;;;;;;5055529;28;20543;-65
2022/06/03 13:10:12;;;;;;;1.30;1.20;;;;;;;;;;5055240;28;20444;-66
2022/06/03 13:12:47;;;;;;;1.20;1.10;;;;;;;;;;5055008;28;20452;-65
2022/06/03 13:15:35;;;;;;;3.90;1.87;;;;;;;;;;5054842;28;20452;-65
2022/06/03 13:18:10;;;;;;;2.13;1.20;;;;;;;;;;5054816;28;20445;-65
2022/06/03 13:20:38;;;;;;;1.57;1.47;;;;;;;;;;5055053;28;20890;-65
2022/06/03 13:23:20;;;;;;;1.40;1.27;;;;;;;;;;5055436;28;20444;-65
2022/06/03 13:25:49;;;;;;;1.97;1.30;;;;;;;;;;5054823;28;20463;-65
2022/06/03 13:28:22;;;;;;;5.47;1.50;;;;;;;;;;5054894;28;20816;-65
2022/06/03 13:31:04;;;;;;;1.40;1.30;;;;;;;;;;5054955;28;20444;-66
2022/06/03 13:33:32;;;;;;;1.50;1.40;;;;;;;;;;5054952;28;20448;-65
2022/06/03 13:36:01;;;;;;;1.53;1.10;;;;;;;;;;5054763;28;20823;-66
2022/06/03 13:38:40;;;;;;;2.97;1.93;;;;;;;;;;5054628;28;20448;-65
2022/06/03 13:44:11;;;;;;;3.67;1.70;;;;;;;;;;5054563;28;20503;-65
2022/06/03 13:46:39;;;;;;;1.80;1.70;;;;;;;;;;5054269;28;20457;-65
2022/06/03 13:49:16;;;;;;;1.90;1.33;;;;;;;;;;5054557;28;20484;-65
2022/06/03 13:51:51;;;;;;;1.63;1.53;;;;;;;;;;5054633;28;20452;-65
2022/06/03 13:54:21;;;;;;;1.30;1.20;;;;;;;;;;5054274;28;21057;-65
2022/06/03 13:56:55;;;;;;;1.40;1.30;;;;;;;;;;5054345;28;20646;-65
2022/06/03 13:59:23;;;;;;;1.90;1.80;;;;;;;;;;5054447;28;20495;-65
2022/06/03 14:01:52;;;;;;;1.50;1.30;;;;;;;;;;5054279;28;20449;-65
2022/06/03 14:04:20;;;;;;;1.30;1.20;;;;;;;;;;5054122;28;20499;-65
2022/06/03 14:06:54;;;;;;;5.77;5.27;;;;;;;;;;5054163;28;20459;-65
2022/06/03 14:09:22;;;;;;;1.40;1.30;;;;;;;;;;5054090;28;20538;-65
2022/06/03 14:11:50;;;;;;;3.83;1.47;;;;;;;;;;5054166;28;20452;-65
2022/06/03 14:14:21;;;;;;;2.50;2.20;;;;;;;;;;5054032;28;20458;-65
2022/06/03 14:16:50;;;;;;;1.20;1.10;;;;;;;;;;5053897;28;20914;-65
2022/06/03 14:19:36;;;;;;;1.47;1.37;;;;;;;;;;5053990;28;20503;-65
2022/06/03 14:22:10;;;;;;;2.17;1.23;;;;;;;;;;5053800;28;20458;-65
2022/06/03 14:24:38;;;;;;;1.63;1.50;;;;;;;;;;5053874;28;20472;-65
2022/06/03 14:27:07;;;;;;;1.50;1.40;;;;;;;;;;5053887;28;20448;-66
2022/06/03 14:29:40;;;;;;;2.30;1.43;;;;;;;;;;5053687;28;20815;-65
2022/06/03 14:32:09;;;;;;;1.40;1.30;;;;;;;;;;5053963;28;20807;-65
2022/06/03 14:34:38;;;;;;;1.67;1.57;;;;;;;;;;5053573;28;20819;-65
2022/06/03 14:37:07;;;;;;;1.80;1.70;;;;;;;;;;5052853;28;20516;-65
2022/06/03 14:39:37;;;;;;;1.50;1.40;;;;;;;;;;5053757;28;20451;-66
2022/06/03 14:42:07;;;;;;;1.30;1.20;;;;;;;;;;5053811;28;20498;-65
2022/06/03 14:44:35;;;;;;;6.93;2.13;;;;;;;;;;5053398;28;20919;-65
2022/06/03 14:47:05;;;;;;;1.50;1.40;;;;;;;;;;5053208;28;20484;-65
2022/06/03 14:49:34;;;;;;;1.20;1.10;;;;;;;;;;5053050;28;20502;-66
2022/06/03 14:52:03;;;;;;;1.43;1.30;;;;;;;;;;5053054;28;20449;-65
2022/06/03 14:54:31;;;;;;;2.47;2.03;;;;;;;;;;5053282;28;20472;-65
2022/06/03 14:57:01;;;;;;;1.87;1.50;;;;;;;;;;5053250;28;20574;-65
2022/06/03 14:59:39;;;;;;;2.43;1.30;;;;;;;;;;5053120;28;20463;-65
2022/06/03 15:02:10;;;;;;;1.43;1.33;;;;;;;;;;5053171;28;20448;-65
2022/06/03 15:04:42;;;;;;;1.90;1.77;;;;;;;;;;5053037;28;20479;-65
2022/06/03 15:07:11;;;;;;;3.07;1.77;;;;;;;;;;5053024;28;20484;-65
2022/06/03 15:09:41;;;;;;;1.57;1.47;;;;;;;;;;5052853;28;20480;-65
2022/06/03 15:12:22;;;;;;;1.30;1.20;;;;;;;;;;5052757;28;20452;-66
2022/06/03 15:14:49;;;;;;;1.20;1.10;;;;;;;;;;5053095;28;20532;-66
2022/06/03 15:17:18;;;;;;;1.50;1.40;;;;;;;;;;5052924;28;20642;-65
2022/06/03 15:19:49;;;;;;;1.70;1.60;;;;;;;;;;5052803;28;20540;-65
2022/06/03 15:22:18;;;;;;;1.50;1.40;;;;;;;;;;5052991;28;20449;-65
2022/06/03 15:24:47;;;;;;;1.30;1.20;;;;;;;;;;5052738;28;20480;-65
2022/06/03 15:27:14;;;;;;;1.30;1.20;;;;;;;;;;5052816;28;20886;-65
2022/06/03 15:29:41;;;;;;;1.40;1.30;;;;;;;;;;5052769;28;20555;-65
2022/06/03 15:32:08;;;;;;;1.87;1.27;;;;;;;;;;5052773;28;20484;-65
2022/06/03 15:34:37;;;;;;;1.87;1.60;;;;;;;;;;5052654;28;20807;-65
2022/06/03 15:37:05;;;;;;;2.40;1.43;;;;;;;;;;5052640;28;20574;-65
2022/06/03 15:39:33;;;;;;;1.60;1.50;;;;;;;;;;5052612;28;20874;-65
2022/06/03 15:42:02;;;;;;;1.50;1.40;;;;;;;;;;5052515;28;21015;-65
2022/06/03 15:44:34;;;;;;;1.47;1.27;;;;;;;;;;5052521;28;20537;-65
2022/06/03 15:47:02;;;;;;;1.73;1.50;;;;;;;;;;5053476;28;20538;-65
2022/06/03 15:49:32;;;;;;;1.30;1.20;;;;;;;;;;5056680;28;20544;-65
2022/06/03 15:52:01;;;;;;;1.60;1.50;;;;;;;;;;5056556;28;20452;-65
2022/06/03 15:54:29;;;;;;;2.90;1.53;;;;;;;;;;5056560;28;20550;-65
2022/06/03 15:57:01;;;;;;;1.43;1.33;;;;;;;;;;5056650;28;20463;-65
2022/06/03 15:59:34;;;;;;;1.60;1.50;;;;;;;;;;5056493;28;20452;-65
2022/06/03 16:02:08;;;;;;;2.03;1.57;;;;;;;;;;5056420;28;20793;-65
2022/06/03 16:04:42;;;;;;;1.80;1.70;;;;;;;;;;5056372;28;21065;-65